createdAt,value
2023-01-17T00:01:57.214Z,2.29
2023-01-17T00:05:04.214Z,2.25
2023-01-17T00:07:50.791Z,2.20
2023-01-17T00:10:23.954Z,2.16
2023-01-17T00:13:15.928Z,2.11
2023-01-17T00:16:07.934Z,2.07
2023-01-17T00:19:14.034Z,2.01
2023-01-17T00:22:00.769Z,1.97
2023-01-17T00:24:50.033Z,1.92
2023-01-17T00:27:24.938Z,1.88
2023-01-17T00:30:15.004Z,1.85
2023-01-17T00:33:03.990Z,1.83
2023-01-17T00:35:55.814Z,1.82
2023-01-17T00:38:28.458Z,1.81
2023-01-17T00:41:15.690Z,1.77
2023-01-17T00:44:02.345Z,1.74
2023-01-17T00:46:49.336Z,1.71
2023-01-17T00:49:35.314Z,1.69
2023-01-17T00:52:21.680Z,1.67
2023-01-17T00:55:07.639Z,1.65
2023-01-17T00:57:53.919Z,1.63
2023-01-17T01:00:40.275Z,1.63
2023-01-17T01:03:29.218Z,1.62
2023-01-17T01:06:15.906Z,1.63
2023-01-17T01:09:01.835Z,1.60
2023-01-17T01:11:49.023Z,1.58
2023-01-17T01:14:57.228Z,1.56
2023-01-17T01:17:47.600Z,1.53
2023-01-17T01:20:58.669Z,1.52
2023-01-17T01:23:44.603Z,1.52
2023-01-17T01:26:50.683Z,1.50
2023-01-17T01:29:39.634Z,1.49
2023-01-17T01:32:25.655Z,1.46
2023-01-17T01:34:59.438Z,1.44
2023-01-17T01:37:52.440Z,1.43
2023-01-17T01:40:47.939Z,1.39
2023-01-17T01:43:44.187Z,1.40
2023-01-17T01:46:38.480Z,1.45
2023-01-17T01:49:35.399Z,1.50
2023-01-17T01:52:29.489Z,1.57
2023-01-17T01:55:29.673Z,1.61
2023-01-17T01:58:26.670Z,1.63
2023-01-17T02:01:30.566Z,1.72
2023-01-17T02:04:21.833Z,1.82
2023-01-17T02:07:19.887Z,1.88
2023-01-17T02:10:10.807Z,1.91
2023-01-17T02:13:01.605Z,1.96
2023-01-17T02:16:10.770Z,1.99
2023-01-17T02:18:53.743Z,2.00
2023-01-17T02:22:03.314Z,2.00
2023-01-17T02:25:15.987Z,1.98
2023-01-17T02:28:32.271Z,1.96
2023-01-17T02:31:30.536Z,1.93
2023-01-17T02:34:37.572Z,1.90
2023-01-17T02:37:34.115Z,1.87
2023-01-17T02:40:31.472Z,1.84
2023-01-17T02:43:08.076Z,1.82
2023-01-17T02:45:56.630Z,1.82
2023-01-17T02:48:49.389Z,1.85
2023-01-17T02:52:01.744Z,1.87
2023-01-17T02:55:15.174Z,1.90
2023-01-17T02:58:22.724Z,1.93
2023-01-17T03:01:35.958Z,1.98
2023-01-17T03:04:33.811Z,2.06
2023-01-17T03:07:25.225Z,2.12
2023-01-17T03:10:18.540Z,2.16
2023-01-17T03:13:12.684Z,2.16
2023-01-17T03:15:44.085Z,2.15
2023-01-17T03:18:18.407Z,2.14
2023-01-17T03:21:26.254Z,2.15
2023-01-17T03:24:17.918Z,2.14
2023-01-17T03:27:08.744Z,2.16
2023-01-17T03:30:05.791Z,2.18
2023-01-17T03:33:02.639Z,2.20
2023-01-17T03:35:59.540Z,2.19
2023-01-17T03:38:48.032Z,2.16
2023-01-17T03:41:40.747Z,2.13
2023-01-17T03:44:35.642Z,2.10
2023-01-17T03:47:25.604Z,2.04
2023-01-17T03:50:19.265Z,1.99
2023-01-17T03:53:17.031Z,1.98
2023-01-17T03:55:47.668Z,1.94
2023-01-17T03:58:38.125Z,1.92
2023-01-17T04:01:29.084Z,1.91
2023-01-17T04:04:31.459Z,1.90
2023-01-17T04:07:20.363Z,1.86
2023-01-17T04:10:16.901Z,1.84
2023-01-17T04:13:16.480Z,1.82
2023-01-17T04:16:11.532Z,1.81
2023-01-17T04:19:17.096Z,1.78
2023-01-17T04:22:10.794Z,1.76
2023-01-17T04:25:01.350Z,1.73
2023-01-17T04:27:53.491Z,1.69
2023-01-17T04:30:43.320Z,1.64
2023-01-17T04:33:41.942Z,1.61
2023-01-17T04:36:31.704Z,1.57
2023-01-17T04:39:22.416Z,1.54
2023-01-17T04:45:01.175Z,1.46
2023-01-17T04:47:37.624Z,1.45
2023-01-17T04:50:29.044Z,1.43
2023-01-17T04:53:00.608Z,1.43
2023-01-17T04:56:04.653Z,1.45
2023-01-17T04:59:16.641Z,1.47
2023-01-17T05:02:11.951Z,1.48
2023-01-17T05:05:03.441Z,1.50
2023-01-17T05:07:58.251Z,1.48
2023-01-17T05:10:30.784Z,1.46
2023-01-17T05:13:23.441Z,1.47
2023-01-17T05:16:14.769Z,1.48
2023-01-17T05:18:43.496Z,1.47
2023-01-17T05:21:19.657Z,1.45
2023-01-17T05:24:09.857Z,1.42
2023-01-17T05:27:04.367Z,1.38
2023-01-17T05:29:56.435Z,1.33
2023-01-17T05:32:31.785Z,1.30
2023-01-17T05:35:29.428Z,1.28
2023-01-17T05:38:29.035Z,1.26
2023-01-17T05:41:19.717Z,1.26
2023-01-17T05:44:09.370Z,1.24
2023-01-17T05:46:59.649Z,1.24
2023-01-17T05:49:58.846Z,1.24
2023-01-17T05:52:52.615Z,1.27
2023-01-17T05:55:27.220Z,1.29
2023-01-17T05:58:16.398Z,1.33
2023-01-17T06:01:19.881Z,1.40
2023-01-17T06:03:56.010Z,1.49
2023-01-17T06:06:44.451Z,1.52
2023-01-17T06:09:34.496Z,1.59
2023-01-17T06:12:23.601Z,1.69
2023-01-17T06:15:22.949Z,1.77
2023-01-17T06:18:20.495Z,1.84
2023-01-17T06:21:01.338Z,1.86
2023-01-17T06:23:50.726Z,1.89
2023-01-17T06:26:40.544Z,1.91
2023-01-17T06:29:37.773Z,1.92
2023-01-17T06:32:35.650Z,1.93
2023-01-17T06:35:03.355Z,1.93
2023-01-17T06:37:30.930Z,1.94
2023-01-17T06:39:59.073Z,1.93
2023-01-17T06:42:30.052Z,1.93
2023-01-17T06:44:58.215Z,1.94
2023-01-17T06:47:27.599Z,1.90
2023-01-17T06:49:58.081Z,1.88
2023-01-17T06:52:26.290Z,1.88
2023-01-17T06:54:57.283Z,1.88
2023-01-17T06:57:31.040Z,1.90
2023-01-17T06:59:58.908Z,1.92
2023-01-17T07:02:28.338Z,2.00
2023-01-17T07:04:57.164Z,2.16
2023-01-17T07:07:25.276Z,2.29
2023-01-17T07:09:54.953Z,2.36
2023-01-17T07:12:22.562Z,2.43
2023-01-17T07:14:50.359Z,2.51
2023-01-17T07:17:19.240Z,2.58
2023-01-17T07:20:15.551Z,2.63
2023-01-17T07:22:48.572Z,2.64
2023-01-17T07:25:19.427Z,2.70
2023-01-17T07:27:50.194Z,2.73
2023-01-17T07:30:18.943Z,2.78
2023-01-17T07:32:56.019Z,2.82
2023-01-17T07:35:25.973Z,2.89
2023-01-17T07:37:54.917Z,2.94
2023-01-17T07:40:22.761Z,2.98
2023-01-17T07:42:50.471Z,3.01
2023-01-17T07:45:19.262Z,3.03
2023-01-17T07:48:00.996Z,3.05
2023-01-17T07:50:28.582Z,3.08
2023-01-17T07:52:59.331Z,3.11
2023-01-17T07:55:28.138Z,3.16
2023-01-17T07:57:57.419Z,3.19
2023-01-17T08:00:30.315Z,3.21
2023-01-17T08:03:00.672Z,3.24
2023-01-17T08:05:30.344Z,3.26
2023-01-17T08:08:01.800Z,3.29
2023-01-17T08:10:30.450Z,3.34
2023-01-17T08:13:00.451Z,3.39
2023-01-17T08:15:28.333Z,3.42
2023-01-17T08:18:00.248Z,3.43
2023-01-17T08:20:28.371Z,3.43
2023-01-17T08:23:00.097Z,3.42
2023-01-17T08:25:29.969Z,3.43
2023-01-17T08:27:58.401Z,3.45
2023-01-17T08:30:27.655Z,3.47
2023-01-17T08:32:55.973Z,3.51
2023-01-17T08:35:26.172Z,3.58
2023-01-17T08:37:55.772Z,3.66
2023-01-17T08:40:25.052Z,3.76
2023-01-17T08:43:00.876Z,3.85
2023-01-17T08:45:31.357Z,3.92
2023-01-17T08:47:59.784Z,4.00
2023-01-17T08:50:27.777Z,4.07
2023-01-17T08:53:01.280Z,4.15
2023-01-17T08:55:29.775Z,4.25
2023-01-17T08:57:57.701Z,4.37
2023-01-17T09:00:26.521Z,4.47
2023-01-17T09:02:54.226Z,4.57
2023-01-17T09:05:26.967Z,4.67
2023-01-17T09:07:56.167Z,4.77
2023-01-17T09:10:24.518Z,4.81
2023-01-17T09:12:54.138Z,4.83
2023-01-17T09:15:23.448Z,4.88
2023-01-17T09:17:55.095Z,4.91
2023-01-17T09:20:24.842Z,4.93
2023-01-17T09:22:53.659Z,4.96
2023-01-17T09:25:25.951Z,5.00
2023-01-17T09:27:53.571Z,5.03
2023-01-17T09:30:23.767Z,5.07
2023-01-17T09:32:57.841Z,5.11
2023-01-17T09:35:25.472Z,5.13
2023-01-17T09:37:57.342Z,5.18
2023-01-17T09:40:26.632Z,5.20
2023-01-17T09:43:08.816Z,5.22
2023-01-17T09:45:42.645Z,5.25
2023-01-17T09:48:28.824Z,5.29
2023-01-17T09:51:01.327Z,5.33
2023-01-17T09:53:37.147Z,5.34
2023-01-17T09:56:20.768Z,5.35
2023-01-17T09:58:59.553Z,5.34
2023-01-17T10:01:38.576Z,5.30
2023-01-17T10:04:20.211Z,5.28
2023-01-17T10:07:05.782Z,5.26
2023-01-17T10:09:49.454Z,5.25
2023-01-17T10:12:33.064Z,5.33
2023-01-17T10:15:28.951Z,5.37
2023-01-17T10:18:16.619Z,5.40
2023-01-17T10:20:56.270Z,5.41
2023-01-17T10:23:43.394Z,5.45
2023-01-17T10:26:20.776Z,5.51
2023-01-17T10:28:50.954Z,5.60
2023-01-17T10:31:25.166Z,5.69
2023-01-17T10:33:57.372Z,5.71
2023-01-17T10:36:27.374Z,5.68
2023-01-17T10:39:03.835Z,5.64
2023-01-17T10:41:36.872Z,5.64
2023-01-17T10:44:12.366Z,5.64
2023-01-17T10:46:51.373Z,5.64
2023-01-17T10:49:21.921Z,5.63
2023-01-17T10:52:12.226Z,5.57
2023-01-17T10:54:59.712Z,5.51
2023-01-17T10:57:31.927Z,5.46
2023-01-17T11:00:01.770Z,5.43
2023-01-17T11:02:36.454Z,5.44
2023-01-17T11:05:20.759Z,5.50
2023-01-17T11:10:48.509Z,5.64
2023-01-17T11:13:24.769Z,5.64
2023-01-17T11:15:57.217Z,5.63
2023-01-17T11:18:31.376Z,5.58
2023-01-17T11:21:14.835Z,5.54
2023-01-17T11:23:47.387Z,5.55
2023-01-17T11:26:25.444Z,5.59
2023-01-17T11:29:12.428Z,5.64
2023-01-17T11:34:31.287Z,5.67
2023-01-17T11:37:16.059Z,5.68
2023-01-17T11:39:47.408Z,5.71
2023-01-17T11:42:38.739Z,5.76
2023-01-17T11:45:25.585Z,5.80
2023-01-17T11:48:18.115Z,5.85
2023-01-17T11:50:55.343Z,5.88
2023-01-17T11:53:26.827Z,5.91
2023-01-17T11:56:01.237Z,5.95
2023-01-17T11:58:33.609Z,6.01
2023-01-17T12:01:15.606Z,6.05
2023-01-17T12:04:28.922Z,6.06
2023-01-17T12:07:26.262Z,6.12
2023-01-17T12:10:07.482Z,6.20
2023-01-17T12:13:07.241Z,6.26
2023-01-17T12:15:53.305Z,6.30
2023-01-17T12:18:39.503Z,6.37
2023-01-17T12:21:20.924Z,6.42
2023-01-17T12:24:10.033Z,6.51
2023-01-17T12:26:41.992Z,6.59
2023-01-17T12:29:48.058Z,6.65
2023-01-17T12:32:41.197Z,6.70
2023-01-17T12:35:18.607Z,6.70
2023-01-17T12:38:04.165Z,6.70
2023-01-17T12:40:42.166Z,6.67
2023-01-17T12:43:19.137Z,6.70
2023-01-17T12:45:47.186Z,6.77
2023-01-17T12:48:22.870Z,6.87
2023-01-17T12:50:59.009Z,7.04
2023-01-17T12:53:39.910Z,7.20
2023-01-17T12:56:13.987Z,7.35
2023-01-17T12:58:45.898Z,7.50
2023-01-17T13:01:23.061Z,7.60
2023-01-17T13:04:06.855Z,7.71
2023-01-17T13:06:54.276Z,8.48
2023-01-17T13:09:23.877Z,9.67
2023-01-17T13:11:55.153Z,10.61
2023-01-17T13:14:24.622Z,11.47
2023-01-17T13:16:59.518Z,12.13
2023-01-17T13:19:46.379Z,12.49
2023-01-17T13:22:21.725Z,12.77
2023-01-17T13:24:59.788Z,13.22
2023-01-17T13:27:44.394Z,13.54
2023-01-17T13:30:43.575Z,13.86
2023-01-17T13:33:36.678Z,14.19
2023-01-17T13:36:29.668Z,14.46
2023-01-17T13:39:38.664Z,14.87
2023-01-17T13:42:27.027Z,15.00
2023-01-17T13:44:55.396Z,15.26
2023-01-17T13:47:42.795Z,15.22
2023-01-17T13:50:27.797Z,15.33
2023-01-17T13:52:57.306Z,15.52
2023-01-17T13:55:47.027Z,15.90
2023-01-17T13:58:53.899Z,15.89
2023-01-17T14:01:49.790Z,14.46
2023-01-17T14:04:17.700Z,12.57
2023-01-17T14:06:56.023Z,11.40
2023-01-17T14:09:36.356Z,10.48
2023-01-17T14:12:25.185Z,9.64
2023-01-17T14:14:59.851Z,8.92
2023-01-17T14:17:50.158Z,8.38
2023-01-17T14:21:03.598Z,7.90
2023-01-17T14:24:06.620Z,7.43
2023-01-17T14:26:55.321Z,7.06
2023-01-17T14:29:46.217Z,6.84
2023-01-17T14:32:18.343Z,6.61
2023-01-17T14:34:48.533Z,6.43
2023-01-17T14:37:29.768Z,6.28
2023-01-17T14:39:57.355Z,6.11
2023-01-17T14:42:28.947Z,5.97
2023-01-17T14:45:01.397Z,5.85
2023-01-17T14:47:35.432Z,5.72
2023-01-17T14:50:15.796Z,5.61
2023-01-17T14:52:44.378Z,5.49
2023-01-17T14:55:17.235Z,5.40
2023-01-17T14:57:57.216Z,5.27
2023-01-17T15:00:31.271Z,5.17
2023-01-17T15:03:03.188Z,5.08
2023-01-17T15:05:33.777Z,4.98
2023-01-17T15:08:02.198Z,4.89
2023-01-17T15:10:32.606Z,4.81
2023-01-17T15:13:09.840Z,4.71
2023-01-17T15:15:39.224Z,4.62
2023-01-17T15:18:19.231Z,4.54
2023-01-17T15:20:52.931Z,4.46
2023-01-17T15:23:25.126Z,4.36
2023-01-17T15:25:54.696Z,4.28
2023-01-17T15:28:34.956Z,4.19
2023-01-17T15:31:16.929Z,4.13
2023-01-17T15:33:46.773Z,4.04
2023-01-17T15:36:27.235Z,3.96
2023-01-17T15:38:59.458Z,3.89
2023-01-17T15:41:33.754Z,3.83
2023-01-17T15:44:02.616Z,3.76
2023-01-17T15:46:47.365Z,3.71
2023-01-17T15:49:36.501Z,3.65
2023-01-17T15:52:16.197Z,3.58
2023-01-17T15:54:53.135Z,3.52
2023-01-17T15:57:30.400Z,3.47
2023-01-17T16:00:19.662Z,3.43
2023-01-17T16:02:49.894Z,3.39
2023-01-17T16:05:42.857Z,3.35
2023-01-17T16:08:39.193Z,3.31
2023-01-17T16:11:11.393Z,3.27
2023-01-17T16:13:53.887Z,3.24
2023-01-17T16:16:27.520Z,3.22
2023-01-17T16:19:01.096Z,3.21
2023-01-17T16:21:35.641Z,3.19
2023-01-17T16:24:09.854Z,3.15
2023-01-17T16:26:38.977Z,3.12
2023-01-17T16:29:11.004Z,3.08
2023-01-17T16:31:40.723Z,3.04
2023-01-17T16:34:13.397Z,3.00
2023-01-17T16:36:46.793Z,2.97
2023-01-17T16:39:21.276Z,2.91
2023-01-17T16:41:58.010Z,2.86
2023-01-17T16:44:26.532Z,2.80
2023-01-17T16:46:59.557Z,2.75
2023-01-17T16:49:32.923Z,2.70
2023-01-17T16:52:01.885Z,2.69
2023-01-17T16:54:37.396Z,2.65
2023-01-17T16:57:07.249Z,2.58
2023-01-17T16:59:55.564Z,2.53
2023-01-17T17:02:23.239Z,2.46
2023-01-17T17:04:52.244Z,2.41
2023-01-17T17:10:04.828Z,2.39
2023-01-17T17:15:50.987Z,2.29
2023-01-17T17:18:41.366Z,2.10
2023-01-17T17:21:33.263Z,1.88
2023-01-17T17:24:37.011Z,1.67
2023-01-17T17:27:31.494Z,1.40
2023-01-17T17:30:19.947Z,1.32
2023-01-17T17:33:29.159Z,1.29
2023-01-17T17:36:22.642Z,1.29
2023-01-17T17:39:17.933Z,1.31
2023-01-17T17:41:57.898Z,1.36
2023-01-17T17:44:27.702Z,1.42
2023-01-17T17:47:19.269Z,1.45
2023-01-17T17:50:15.271Z,1.33
2023-01-17T17:53:04.228Z,1.08
2023-01-17T17:55:35.968Z,0.88
2023-01-17T17:58:23.189Z,0.75
2023-01-17T18:01:25.954Z,0.69
2023-01-17T18:03:59.718Z,0.69
2023-01-17T18:06:46.648Z,0.72
2023-01-17T18:09:38.947Z,0.79
2023-01-17T18:12:30.792Z,0.82
2023-01-17T18:15:05.818Z,0.83
2023-01-17T18:18:16.457Z,0.82
2023-01-17T18:20:56.826Z,0.73
2023-01-17T18:23:57.772Z,0.62
2023-01-17T18:27:10.371Z,0.51
2023-01-17T18:29:44.545Z,0.43
2023-01-17T18:32:46.346Z,0.36
2023-01-17T18:35:54.811Z,0.28
2023-01-17T18:38:53.977Z,0.27
2023-01-17T18:41:46.885Z,0.32
2023-01-17T18:44:43.624Z,0.40
2023-01-17T18:47:45.286Z,0.44
2023-01-17T18:50:41.982Z,0.45
2023-01-17T18:53:38.667Z,0.46
2023-01-17T18:56:46.472Z,0.44
2023-01-17T19:00:04.744Z,0.41
2023-01-17T19:03:01.526Z,0.39
2023-01-17T19:05:43.439Z,0.35
2023-01-17T19:08:27.347Z,0.27
2023-01-17T19:11:43.697Z,0.18
2023-01-17T19:17:47.218Z,0.25
2023-01-17T19:21:11.355Z,0.36
2023-01-17T19:24:06.004Z,0.42
2023-01-17T19:27:07.489Z,0.33
2023-01-17T19:30:19.761Z,0.23
2023-01-17T19:36:52.308Z,0.22
2023-01-17T19:39:34.969Z,0.20
2023-01-17T19:42:49.432Z,0.14
2023-01-17T19:46:06.278Z,0.01
2023-01-17T19:49:14.177Z,-0.08
2023-01-17T19:52:16.334Z,-0.14
2023-01-17T19:55:15.005Z,-0.13
2023-01-17T19:58:17.317Z,-0.09
2023-01-17T20:01:58.556Z,-0.05
2023-01-17T20:04:51.024Z,0.01
2023-01-17T20:11:20.464Z,-0.08
2023-01-17T20:14:40.941Z,-0.20
2023-01-17T20:17:43.731Z,-0.34
2023-01-17T20:20:58.038Z,-0.37
2023-01-17T20:23:46.674Z,-0.34
2023-01-17T20:26:44.525Z,-0.30
2023-01-17T20:29:27.688Z,-0.31
2023-01-17T20:32:36.241Z,-0.30
2023-01-17T20:36:10.027Z,-0.27
2023-01-17T20:42:40.884Z,-0.24
2023-01-17T20:45:39.631Z,-0.25
2023-01-17T20:48:46.364Z,-0.28
2023-01-17T20:51:25.927Z,-0.39
2023-01-17T20:54:27.670Z,-0.58
2023-01-17T20:57:30.693Z,-0.71
2023-01-17T21:00:41.439Z,-0.77
2023-01-17T21:03:35.109Z,-0.78
2023-01-17T21:06:31.767Z,-0.85
2023-01-17T21:09:14.001Z,-0.94
2023-01-17T21:12:05.811Z,-1.03
2023-01-17T21:15:03.807Z,-1.08
2023-01-17T21:18:08.764Z,-1.17
2023-01-17T21:21:09.437Z,-1.23
2023-01-17T21:23:44.352Z,-1.26
2023-01-17T21:26:52.474Z,-1.26
2023-01-17T21:29:43.928Z,-1.26
2023-01-17T21:32:38.527Z,-1.27
2023-01-17T21:35:43.109Z,-1.26
2023-01-17T21:38:52.342Z,-1.21
2023-01-17T21:42:13.066Z,-1.15
2023-01-17T21:45:14.028Z,-1.12
2023-01-17T21:48:25.986Z,-1.12
2023-01-17T21:51:11.586Z,-1.12
2023-01-17T21:54:10.083Z,-1.12
2023-01-17T21:57:18.331Z,-1.12
2023-01-17T22:00:15.056Z,-1.10
2023-01-17T22:02:53.699Z,-1.10
2023-01-17T22:05:46.469Z,-1.07
2023-01-17T22:08:40.953Z,-1.05
2023-01-17T22:11:37.675Z,-1.03
2023-01-17T22:14:34.599Z,-1.05
2023-01-17T22:17:39.172Z,-1.14
2023-01-17T22:20:54.763Z,-1.20
2023-01-17T22:23:56.751Z,-1.22
2023-01-17T22:27:17.756Z,-1.26
2023-01-17T22:30:38.053Z,-1.24
2023-01-17T22:33:45.331Z,-1.17
2023-01-17T22:36:47.290Z,-1.14
2023-01-17T22:39:55.229Z,-1.07
2023-01-17T22:42:56.137Z,-1.00
2023-01-17T22:46:09.190Z,-0.94
2023-01-17T22:48:54.050Z,-0.88
2023-01-17T22:52:09.114Z,-0.80
2023-01-17T22:55:20.118Z,-0.71
2023-01-17T22:58:19.963Z,-0.64
2023-01-17T23:00:50.339Z,-0.57
2023-01-17T23:03:53.789Z,-0.51
2023-01-17T23:06:47.767Z,-0.47
2023-01-17T23:09:42.009Z,-0.41
2023-01-17T23:12:17.017Z,-0.39
2023-01-17T23:15:50.948Z,-0.34
2023-01-17T23:19:07.086Z,-0.31
2023-01-17T23:22:21.329Z,-0.27
2023-01-17T23:25:19.250Z,-0.20
2023-01-17T23:28:29.637Z,-0.11
2023-01-17T23:31:27.678Z,-0.12
2023-01-17T23:34:47.708Z,-0.14
2023-01-17T23:37:59.997Z,-0.08
2023-01-17T23:41:23.443Z,-0.05
2023-01-17T23:44:05.614Z,-0.03
